Time;durP1;ratioP1;P1;durP2;ratioP2;P2;SDS_P1;SDS_P2;PMS_P1;PMS_P2;Temp;Humidity;BMP_temperature;BMP_pressure;BME280_temperature;BME280_humidity;BME280_pressure;Samples;Min_cycle;Max_cycle;Signal;HPM_P1;HPM_P2
2024/01/18 00:01:00;;;;;;;1.65;1.02;;;;;;;9.64;87.24;95217.69;5050814;28;20233;-77
2024/01/18 00:03:28;;;;;;;0.98;0.90;;;;;;;9.59;87.44;95217.69;5049311;28;20275;-77
2024/01/18 00:05:54;;;;;;;1.05;0.95;;;;;;;9.71;87.11;95223.66;5048465;28;20233;-76
2024/01/18 00:08:21;;;;;;;1.60;0.85;;;;;;;9.66;87.09;95221.75;5050486;28;20201;-76
2024/01/18 00:10:47;;;;;;;0.90;0.90;;;;;;;9.75;86.73;95225.53;5050935;28;20204;-77
2024/01/18 00:13:14;;;;;;;1.38;0.93;;;;;;;9.71;86.85;95229.06;5049284;28;20288;-77
2024/01/18 00:15:41;;;;;;;0.90;0.90;;;;;;;9.76;86.37;95231.75;5052363;28;20209;-77
2024/01/18 00:18:07;;;;;;;0.85;0.85;;;;;;;9.82;86.17;95230.69;5050064;28;20768;-77
2024/01/18 00:20:36;;;;;;;1.40;0.88;;;;;;;9.89;85.88;95231.25;5049491;28;20221;-77
2024/01/18 00:23:02;;;;;;;1.23;0.90;;;;;;;9.86;85.77;95226.38;5046827;28;20209;-77
2024/01/18 00:25:29;;;;;;;1.00;0.80;;;;;;;9.79;86.04;95236.63;5049649;28;20229;-77
2024/01/18 00:27:56;;;;;;;0.75;0.75;;;;;;;9.78;86.32;95235.00;5032829;28;20212;-77
2024/01/18 00:30:23;;;;;;;1.10;0.85;;;;;;;9.76;85.93;95237.16;5048835;28;20197;-77
2024/01/18 00:32:49;;;;;;;1.30;0.90;;;;;;;9.82;85.39;95236.09;5045765;28;20247;-78
2024/01/18 00:35:16;;;;;;;0.93;0.82;;;;;;;9.77;85.74;95245.00;5048485;28;20233;-77
2024/01/18 00:37:44;;;;;;;1.02;0.90;;;;;;;9.82;85.21;95229.88;5051044;28;20201;-77
2024/01/18 00:40:13;;;;;;;1.65;0.90;;;;;;;9.67;85.47;95244.19;5052675;28;20217;-77
2024/01/18 00:42:39;;;;;;;0.80;0.80;;;;;;;9.61;85.34;95242.53;5046076;28;20275;-77
2024/01/18 00:45:07;;;;;;;1.42;1.10;;;;;;;9.37;86.26;95240.28;5048910;28;20240;-77
2024/01/18 00:47:34;;;;;;;1.35;0.85;;;;;;;9.18;87.12;95239.09;5046716;28;20581;-77
2024/01/18 00:50:00;;;;;;;1.13;1.02;;;;;;;9.20;87.41;95239.66;5047214;28;20284;-77
2024/01/18 00:52:27;;;;;;;1.08;0.85;;;;;;;9.21;87.51;95235.88;5049076;28;20209;-77
2024/01/18 00:54:55;;;;;;;1.55;1.00;;;;;;;9.20;87.60;95239.66;5047926;28;20288;-78
2024/01/18 00:57:22;;;;;;;1.05;0.95;;;;;;;9.29;87.10;95240.78;5047905;28;20280;-77
2024/01/18 00:59:48;;;;;;;1.08;0.98;;;;;;;9.30;87.24;95239.72;5041696;28;20225;-77
2024/01/18 01:02:15;;;;;;;1.00;0.90;;;;;;;9.32;86.63;95245.66;5048015;28;20276;-77
2024/01/18 01:04:42;;;;;;;2.00;1.10;;;;;;;9.43;86.38;95239.22;5032441;28;20658;-78
2024/01/18 01:07:08;;;;;;;1.58;0.95;;;;;;;9.46;86.37;95242.47;5049936;28;20193;-78
2024/01/18 01:09:35;;;;;;;1.10;1.00;;;;;;;9.55;85.62;95241.69;5049176;28;20298;-77
2024/01/18 01:12:03;;;;;;;2.63;1.00;;;;;;;9.45;85.89;95244.34;5049398;28;20284;-78
2024/01/18 01:14:30;;;;;;;1.00;0.90;;;;;;;9.37;86.27;95251.09;5046397;28;20243;-77
2024/01/18 01:16:56;;;;;;;0.98;0.90;;;;;;;9.41;86.10;95252.19;5029940;28;20297;-77
2024/01/18 01:19:23;;;;;;;1.20;1.00;;;;;;;9.41;86.31;95256.78;5049422;28;20225;-77
2024/01/18 01:21:50;;;;;;;1.67;1.20;;;;;;;9.24;86.50;95224.56;5031955;28;20304;-77
2024/01/18 01:24:16;;;;;;;1.10;1.00;;;;;;;9.34;86.70;95254.31;5045648;28;20291;-77
2024/01/18 01:26:43;;;;;;;1.98;0.90;;;;;;;9.49;86.00;95247.34;5050740;28;20673;-77
2024/01/18 01:29:11;;;;;;;1.58;1.00;;;;;;;9.42;85.95;95256.47;5047234;28;20300;-77
2024/01/18 01:31:38;;;;;;;1.02;0.90;;;;;;;9.45;85.80;95260.53;5046740;28;20213;-77
2024/01/18 01:34:04;;;;;;;1.05;0.90;;;;;;;9.46;85.88;95258.66;5045670;28;20197;-77
2024/01/18 01:36:31;;;;;;;1.20;1.00;;;;;;;9.53;85.71;95259.22;5048888;28;20245;-76
2024/01/18 01:38:57;;;;;;;0.80;0.80;;;;;;;9.53;85.57;95254.66;5048628;28;20197;-77
2024/01/18 01:41:24;;;;;;;1.00;0.70;;;;;;;9.53;85.60;95248.44;5046738;28;20288;-77
2024/01/18 01:43:57;;;;;;;2.25;1.00;;;;;;;9.57;85.28;95241.44;5046678;28;20216;-77
2024/01/18 01:46:25;;;;;;;1.85;0.85;;;;;;;9.53;85.82;95245.72;5048565;28;20205;-77
2024/01/18 01:48:55;;;;;;;0.80;0.80;;;;;;;9.48;85.90;95243.00;5048018;28;20201;-77
2024/01/18 01:51:22;;;;;;;1.33;0.90;;;;;;;9.53;85.69;95243.03;5060992;28;20300;-77
2024/01/18 01:53:48;;;;;;;3.03;1.08;;;;;;;9.59;85.45;95248.19;5044653;28;20272;-77
2024/01/18 01:56:15;;;;;;;1.17;1.00;;;;;;;9.57;85.72;95253.03;5046669;28;20198;-77
2024/01/18 01:58:42;;;;;;;1.42;1.00;;;;;;;9.69;85.41;95259.03;5030925;28;20292;-77
2024/01/18 02:01:08;;;;;;;0.80;0.80;;;;;;;9.75;84.80;95262.53;5046786;28;20205;-77
2024/01/18 02:03:36;;;;;;;1.05;1.00;;;;;;;9.84;84.42;95260.16;5049332;28;20288;-77
2024/01/18 02:06:04;;;;;;;1.00;0.90;;;;;;;9.89;84.02;95258.28;5044896;28;20205;-77
2024/01/18 02:08:30;;;;;;;0.80;0.80;;;;;;;9.80;84.41;95259.84;5048461;28;20547;-76
2024/01/18 02:10:57;;;;;;;2.03;1.02;;;;;;;9.76;84.52;95261.47;5047368;28;20204;-78
2024/01/18 02:13:24;;;;;;;1.00;0.80;;;;;;;9.88;84.10;95261.25;5047264;28;20655;-77
2024/01/18 02:15:51;;;;;;;1.85;0.90;;;;;;;9.88;83.75;95267.47;5047313;28;20725;-77
2024/01/18 02:18:17;;;;;;;1.02;0.80;;;;;;;9.72;nan;95258.50;5049516;28;20212;-77
2024/01/18 02:20:45;;;;;;;2.03;0.80;;;;;;;9.76;84.47;95264.16;5044842;28;20289;-77
2024/01/18 02:23:12;;;;;;;1.00;0.82;;;;;;;9.63;85.23;95270.09;5046422;28;20345;-77
2024/01/18 02:25:41;;;;;;;0.88;0.88;;;;;;;9.73;85.00;95283.63;5046484;28;20312;-77
2024/01/18 02:28:08;;;;;;;1.75;0.98;;;;;;;9.79;84.20;95296.06;5049317;28;20262;-77
2024/01/18 02:30:34;;;;;;;3.20;2.35;;;;;;;9.58;84.24;95294.34;5044435;28;20201;-77
2024/01/18 02:33:01;;;;;;;3.70;2.65;;;;;;;9.32;84.92;95285.34;5044287;28;20734;-77
2024/01/18 02:35:28;;;;;;;2.80;2.60;;;;;;;9.39;84.74;95286.72;5048645;28;20208;-77
2024/01/18 02:37:55;;;;;;;3.30;2.90;;;;;;;9.35;84.55;95290.22;5047734;28;20255;-78
2024/01/18 02:40:21;;;;;;;2.75;2.10;;;;;;;9.39;84.23;95294.81;5050540;28;20221;-76
2024/01/18 02:42:50;;;;;;;2.20;2.10;;;;;;;9.30;84.83;95299.09;5046466;28;20223;-77
2024/01/18 02:45:17;;;;;;;2.15;1.95;;;;;;;9.38;83.91;95295.91;5068487;28;20308;-77
2024/01/18 02:47:43;;;;;;;3.30;3.00;;;;;;;9.17;84.67;95294.13;5049254;28;20228;-77
2024/01/18 02:50:10;;;;;;;2.90;2.70;;;;;;;9.06;85.70;95297.88;5048395;28;20232;-77
2024/01/18 02:52:38;;;;;;;4.22;3.90;;;;;;;9.25;84.61;95299.06;5044494;28;20210;-77
2024/01/18 02:55:06;;;;;;;3.97;3.67;;;;;;;9.00;85.84;95288.13;5043989;28;20193;-77
2024/01/18 02:57:32;;;;;;;4.40;4.00;;;;;;;9.04;85.45;95302.72;5047502;28;20196;-77
2024/01/18 03:00:00;;;;;;;5.63;5.22;;;;;;;8.64;86.57;95304.03;5046169;28;20308;-77
2024/01/18 03:02:27;;;;;;;6.95;6.35;;;;;;;8.28;88.98;95297.50;5037549;28;20216;-76
2024/01/18 03:04:53;;;;;;;7.50;7.00;;;;;;;8.28;89.04;95304.75;5065758;28;20228;-76
2024/01/18 03:07:20;;;;;;;9.25;8.55;;;;;;;8.19;89.00;95304.41;5064292;28;20215;-76
2024/01/18 03:09:47;;;;;;;10.20;9.30;;;;;;;7.85;90.06;95311.84;5049138;28;20611;-75
2024/01/18 03:12:13;;;;;;;9.93;9.23;;;;;;;7.74;90.31;95313.63;5051260;28;20193;-75
2024/01/18 03:14:40;;;;;;;11.68;10.65;;;;;;;7.72;90.22;95325.72;5050776;28;20289;-76
2024/01/18 03:17:08;;;;;;;14.90;13.60;;;;;;;7.75;90.22;95315.25;5051353;28;20205;-75
2024/01/18 03:19:35;;;;;;;12.68;11.77;;;;;;;7.47;90.70;95323.53;5050145;28;20219;-75
2024/01/18 03:22:01;;;;;;;11.27;10.27;;;;;;;7.52;90.26;95318.19;5032156;28;20265;-76
2024/01/18 03:24:29;;;;;;;8.77;8.07;;;;;;;7.40;89.73;95306.75;5049687;28;20200;-77
2024/01/18 03:26:55;;;;;;;8.70;8.00;;;;;;;7.44;89.78;95313.28;5048851;28;20217;-76
2024/01/18 03:29:22;;;;;;;8.20;7.60;;;;;;;7.42;89.35;95296.56;5050891;28;20203;-75
2024/01/18 03:31:49;;;;;;;7.68;7.10;;;;;;;7.36;89.23;95313.69;5049802;28;20294;-75
2024/01/18 03:34:17;;;;;;;6.22;5.82;;;;;;;7.14;89.56;95312.88;5048684;28;20220;-76
2024/01/18 03:36:43;;;;;;;5.93;5.53;;;;;;;7.04;89.92;95308.16;5043866;28;20202;-76
2024/01/18 03:39:10;;;;;;;6.80;6.40;;;;;;;7.12;88.69;95307.72;5046108;28;20209;-76
2024/01/18 03:41:36;;;;;;;6.07;5.68;;;;;;;7.13;88.71;95311.22;5048922;28;20742;-76
2024/01/18 03:44:03;;;;;;;5.72;5.32;;;;;;;6.91;89.34;95316.53;5067130;28;20201;-75
2024/01/18 03:46:30;;;;;;;6.13;5.63;;;;;;;6.98;88.82;95319.88;5049584;28;20647;-76
2024/01/18 03:48:56;;;;;;;6.60;6.10;;;;;;;6.92;88.72;95321.69;5051775;28;20217;-75
2024/01/18 03:51:24;;;;;;;6.97;6.47;;;;;;;6.84;88.21;95323.97;5048579;28;20197;-75
2024/01/18 03:53:51;;;;;;;7.68;7.18;;;;;;;6.68;88.88;95326.44;5066339;28;20740;-75
2024/01/18 03:56:17;;;;;;;7.50;7.00;;;;;;;6.47;89.79;95319.09;5049471;28;20211;-75
2024/01/18 03:58:44;;;;;;;7.75;7.25;;;;;;;6.46;90.02;95328.22;5049585;28;20568;-75
2024/01/18 04:01:11;;;;;;;7.60;7.10;;;;;;;6.35;90.31;95310.28;5050143;28;20307;-76
2024/01/18 04:03:37;;;;;;;8.30;7.70;;;;;;;6.37;90.10;95322.44;5051521;28;20204;-75
2024/01/18 04:06:04;;;;;;;7.32;6.82;;;;;;;6.30;89.43;95326.31;5050693;28;20205;-75
2024/01/18 04:08:32;;;;;;;7.50;7.00;;;;;;;6.36;88.87;95328.03;5049920;28;20336;-76
2024/01/18 04:10:59;;;;;;;7.50;7.00;;;;;;;6.06;89.99;95317.59;5066462;28;20211;-76
2024/01/18 04:13:26;;;;;;;7.45;6.95;;;;;;;6.09;90.05;95318.97;5049183;28;20597;-76
2024/01/18 04:15:52;;;;;;;8.90;8.27;;;;;;;6.05;89.46;95311.41;5048774;28;20205;-76
2024/01/18 04:18:19;;;;;;;9.48;8.77;;;;;;;6.15;88.98;95323.38;5048515;28;20304;-76
2024/01/18 04:20:46;;;;;;;9.00;8.40;;;;;;;5.90;89.76;95311.09;5047698;28;20228;-75
2024/01/18 04:23:12;;;;;;;9.35;8.65;;;;;;;5.89;90.08;95303.28;5045322;28;20331;-77
2024/01/18 04:25:40;;;;;;;10.00;9.30;;;;;;;5.94;90.68;95312.25;5051276;28;20208;-75
2024/01/18 04:28:07;;;;;;;9.43;8.70;;;;;;;5.96;89.87;95310.16;5050765;28;20211;-75
2024/01/18 04:30:33;;;;;;;8.85;8.25;;;;;;;5.87;90.52;95314.22;5046970;28;20201;-77
2024/01/18 04:32:59;;;;;;;9.65;8.95;;;;;;;6.09;89.04;95317.09;5047183;28;20213;-75
2024/01/18 04:35:25;;;;;;;10.67;9.87;;;;;;;5.87;90.30;95314.22;5048261;28;20632;-76
2024/01/18 04:37:52;;;;;;;9.77;9.07;;;;;;;5.91;90.33;95323.47;5048879;28;20284;-76
2024/01/18 04:40:18;;;;;;;9.30;8.60;;;;;;;6.18;88.47;95315.63;5047825;28;20319;-76
2024/01/18 04:42:46;;;;;;;10.35;9.55;;;;;;;6.03;88.88;95313.50;5049924;28;20284;-76
2024/01/18 04:45:13;;;;;;;9.98;9.23;;;;;;;5.81;89.87;95315.22;5049536;28;20244;-75
2024/01/18 04:47:39;;;;;;;10.90;9.98;;;;;;;5.68;89.93;95316.31;5047913;28;20201;-76
2024/01/18 04:50:08;;;;;;;10.30;9.60;;;;;;;5.58;90.51;95305.38;5049630;28;20205;-76
2024/01/18 04:52:34;;;;;;;9.95;9.15;;;;;;;5.59;90.10;95319.59;5048284;28;20201;-76
2024/01/18 04:55:04;;;;;;;8.00;7.40;;;;;;;5.64;88.87;95319.69;5045726;28;20212;-76
2024/01/18 04:57:31;;;;;;;8.50;7.90;;;;;;;5.32;88.99;95314.78;5044130;28;20201;-76
2024/01/18 04:59:59;;;;;;;7.57;6.97;;;;;;;5.16;89.60;95314.69;5047389;28;20758;-76
2024/01/18 05:02:25;;;;;;;7.65;7.15;;;;;;;5.26;89.29;95312.22;5045021;28;20307;-76
2024/01/18 05:04:52;;;;;;;7.43;6.90;;;;;;;5.21;89.20;95310.25;5045849;28;20203;-75
2024/01/18 05:07:19;;;;;;;7.32;6.72;;;;;;;5.29;88.91;95312.56;5048867;28;20229;-75
2024/01/18 05:09:45;;;;;;;7.00;6.50;;;;;;;5.38;87.93;95313.03;5048583;28;20197;-74
2024/01/18 05:12:12;;;;;;;7.50;6.90;;;;;;;5.34;87.93;95312.66;5047190;28;20193;-75
2024/01/18 05:14:39;;;;;;;7.38;6.88;;;;;;;5.03;89.49;95318.44;5044027;28;20197;-75
2024/01/18 05:17:10;;;;;;;7.68;7.18;;;;;;;5.16;89.14;95323.56;5034688;28;20208;-75
2024/01/18 05:19:37;;;;;;;7.30;6.70;;;;;;;4.99;89.90;95323.44;5039552;28;20209;-75
2024/01/18 05:22:04;;;;;;;7.93;7.43;;;;;;;5.10;90.12;95318.31;5043821;28;20225;-75
2024/01/18 05:24:31;;;;;;;8.60;7.70;;;;;;;5.08;90.08;95321.22;5046164;28;20212;-74
2024/01/18 05:26:57;;;;;;;9.35;8.65;;;;;;;4.96;91.04;95323.91;5066064;28;20201;-75
2024/01/18 05:29:24;;;;;;;7.10;6.50;;;;;;;4.89;91.00;95325.88;5046723;28;20208;-75
2024/01/18 05:31:51;;;;;;;9.55;8.02;;;;;;;4.88;91.77;95332.28;5045457;28;20217;-74
2024/01/18 05:34:19;;;;;;;7.90;7.20;;;;;;;4.97;91.00;95335.44;5045174;28;20211;-75
2024/01/18 05:36:45;;;;;;;7.80;7.20;;;;;;;4.93;90.69;95343.13;5045759;28;20284;-73
2024/01/18 05:39:12;;;;;;;5.72;5.22;;;;;;;6.33;84.43;95340.09;5047449;28;20305;-74
2024/01/18 05:41:39;;;;;;;7.70;7.00;;;;;;;6.20;82.29;95340.38;5050623;28;20228;-74
2024/01/18 05:44:05;;;;;;;15.18;13.88;;;;;;;5.76;83.35;95359.91;5045910;28;20197;-73
2024/01/18 05:46:32;;;;;;;8.70;8.00;;;;;;;5.05;85.66;95353.88;5037661;28;20268;-75
2024/01/18 05:48:58;;;;;;;10.80;9.80;;;;;;;4.83;86.94;95355.50;5046713;28;20293;-75
2024/01/18 05:51:26;;;;;;;13.30;12.02;;;;;;;4.48;88.11;95350.94;5061852;28;20645;-76
2024/01/18 05:53:53;;;;;;;6.10;5.60;;;;;;;3.99;88.72;95373.47;5045845;28;20212;-75
2024/01/18 05:56:20;;;;;;;8.73;8.02;;;;;;;3.59;90.25;95386.53;5047766;28;20213;-80
2024/01/18 05:58:47;;;;;;;6.70;6.10;;;;;;;3.53;89.92;95382.09;5045732;28;20259;-75
2024/01/18 06:01:14;;;;;;;4.55;4.25;;;;;;;3.26;91.55;95369.03;5044187;28;20370;-76
2024/01/18 06:03:40;;;;;;;6.22;5.72;;;;;;;3.20;91.05;95377.94;5045697;28;20197;-75
2024/01/18 06:06:07;;;;;;;4.93;4.53;;;;;;;3.28;91.63;95380.31;5043896;28;20197;-74
2024/01/18 06:08:36;;;;;;;4.50;4.10;;;;;;;3.31;91.44;95374.53;5047369;28;20205;-77
2024/01/18 06:11:02;;;;;;;4.50;4.10;;;;;;;3.40;90.86;95372.38;5052291;28;20216;-73
2024/01/18 06:13:29;;;;;;;3.50;3.30;;;;;;;3.33;91.50;95372.44;5049546;28;20197;-74
2024/01/18 06:15:56;;;;;;;4.00;3.70;;;;;;;3.29;91.07;95376.59;5044303;28;20216;-73
2024/01/18 06:18:23;;;;;;;5.47;4.97;;;;;;;3.11;91.58;95379.28;5042235;28;20237;-73
2024/01/18 06:20:50;;;;;;;3.70;3.40;;;;;;;3.11;91.66;95371.25;5041710;28;20229;-73
2024/01/18 06:23:17;;;;;;;4.00;3.70;;;;;;;2.92;93.14;95380.31;5050245;28;20291;-73
2024/01/18 06:25:45;;;;;;;3.70;3.40;;;;;;;3.04;92.63;95383.84;5056342;28;20204;-73
2024/01/18 06:28:12;;;;;;;4.10;3.80;;;;;;;3.01;92.53;95378.97;5052888;28;20223;-74
2024/01/18 06:30:43;;;;;;;5.00;4.60;;;;;;;3.00;92.63;95377.31;5070244;28;20239;-74
2024/01/18 06:33:10;;;;;;;5.00;4.60;;;;;;;2.93;93.12;95371.22;5052766;28;20267;-74
2024/01/18 06:35:37;;;;;;;3.33;3.10;;;;;;;2.97;92.91;95367.06;5051158;28;20201;-73
2024/01/18 06:38:03;;;;;;;3.88;3.67;;;;;;;2.96;93.44;95373.44;5052196;28;20746;-73
2024/01/18 06:40:30;;;;;;;3.58;3.30;;;;;;;3.12;93.03;95375.56;5054241;28;20201;-73
2024/01/18 06:42:58;;;;;;;4.07;3.78;;;;;;;3.30;91.62;95372.88;5056107;28;20236;-73
2024/01/18 06:45:24;;;;;;;3.80;3.50;;;;;;;3.28;91.11;95374.16;5051996;28;20317;-73
2024/01/18 06:47:51;;;;;;;3.60;3.40;;;;;;;3.26;91.03;95366.34;5030561;28;20205;-74
2024/01/18 06:50:18;;;;;;;3.80;3.50;;;;;;;3.15;91.57;95369.78;5047434;28;20280;-74
2024/01/18 06:52:45;;;;;;;3.40;3.10;;;;;;;3.21;91.62;95362.75;5043697;28;20280;-74
2024/01/18 06:55:12;;;;;;;3.50;3.30;;;;;;;3.33;91.40;95353.72;5046352;28;20550;-73
2024/01/18 06:57:39;;;;;;;4.93;4.53;;;;;;;3.21;91.32;95350.19;5047092;28;20316;-74
2024/01/18 07:00:08;;;;;;;4.97;3.90;;;;;;;3.26;91.99;95358.34;5046545;28;20220;-74
2024/01/18 07:02:34;;;;;;;5.00;4.28;;;;;;;3.15;92.10;95356.41;5045595;28;20239;-73
2024/01/18 07:05:01;;;;;;;4.38;4.07;;;;;;;3.24;91.78;95360.44;5039932;28;20211;-74
2024/01/18 07:07:27;;;;;;;3.65;3.35;;;;;;;3.27;91.74;95373.31;5045432;28;20209;-73
2024/01/18 07:09:55;;;;;;;3.85;3.55;;;;;;;3.20;91.34;95367.25;5025619;28;20211;-74
2024/01/18 07:12:21;;;;;;;4.30;4.00;;;;;;;3.36;91.11;95372.00;5045858;28;20212;-74
2024/01/18 07:14:49;;;;;;;3.85;3.55;;;;;;;3.21;91.70;95366.22;5046786;28;20682;-74
2024/01/18 07:17:17;;;;;;;4.07;3.10;;;;;;;3.21;91.84;95362.75;5046633;28;20185;-74
2024/01/18 07:19:44;;;;;;;3.70;3.40;;;;;;;3.11;91.92;95365.91;5042748;28;20204;-74
2024/01/18 07:22:11;;;;;;;3.10;2.90;;;;;;;3.37;90.55;95367.47;5042814;28;20982;-73
2024/01/18 07:24:38;;;;;;;4.40;4.00;;;;;;;3.29;90.42;95373.09;5045020;28;20217;-74
2024/01/18 07:27:09;;;;;;;3.50;3.20;;;;;;;3.29;91.94;95368.56;5044345;28;20201;-73
2024/01/18 07:29:35;;;;;;;3.75;3.15;;;;;;;3.34;90.67;95370.59;5045714;28;20211;-73
2024/01/18 07:32:02;;;;;;;3.22;3.03;;;;;;;3.37;90.63;95367.47;5042689;28;20194;-73
2024/01/18 07:34:32;;;;;;;4.38;4.00;;;;;;;3.37;90.11;95364.78;5044849;28;20674;-73
2024/01/18 07:36:59;;;;;;;4.18;3.80;;;;;;;3.29;90.12;95357.06;5046006;28;20199;-74
2024/01/18 07:39:27;;;;;;;5.65;4.15;;;;;;;3.21;90.45;95354.72;5046304;28;20197;-74
2024/01/18 07:41:53;;;;;;;4.75;4.25;;;;;;;3.14;90.63;95352.13;5026476;28;20828;-74
2024/01/18 07:44:19;;;;;;;5.25;4.75;;;;;;;3.19;90.74;95356.78;5047405;28;20205;-73
2024/01/18 07:46:45;;;;;;;4.80;4.40;;;;;;;3.15;90.81;95353.75;5043119;28;20288;-73
2024/01/18 07:49:12;;;;;;;6.18;4.57;;;;;;;3.30;90.51;95350.69;5049773;28;20207;-74
2024/01/18 07:51:41;;;;;;;4.68;4.28;;;;;;;3.20;90.75;95351.22;5045526;28;20220;-74
2024/01/18 07:54:07;;;;;;;4.55;4.15;;;;;;;3.19;91.13;95354.94;5046891;28;20286;-74
2024/01/18 07:56:35;;;;;;;6.25;5.65;;;;;;;3.10;90.61;95356.25;5050542;28;20582;-74
2024/01/18 07:59:02;;;;;;;5.82;5.32;;;;;;;2.92;91.51;95365.09;5050540;28;20216;-74
2024/01/18 08:01:29;;;;;;;6.40;5.90;;;;;;;2.96;91.27;95371.59;5047915;28;20213;-74
2024/01/18 08:03:55;;;;;;;7.25;6.63;;;;;;;3.06;90.83;95365.75;5050172;28;20736;-73
2024/01/18 08:06:22;;;;;;;8.02;7.22;;;;;;;2.89;91.21;95370.06;5048843;28;20198;-74
2024/01/18 08:08:50;;;;;;;7.70;7.00;;;;;;;2.69;91.91;95367.56;5050506;28;20395;-73
2024/01/18 08:11:16;;;;;;;7.03;6.45;;;;;;;2.61;91.62;95383.84;5047982;28;20205;-74
2024/01/18 08:13:43;;;;;;;7.95;7.25;;;;;;;2.43;92.38;95386.47;5050091;28;20209;-73
2024/01/18 08:16:10;;;;;;;13.38;12.07;;;;;;;2.51;92.38;95383.53;5050102;28;20219;-75
2024/01/18 08:18:37;;;;;;;8.77;7.97;;;;;;;2.45;92.26;95393.22;5047504;28;20201;-73
2024/01/18 08:21:04;;;;;;;7.57;6.90;;;;;;;2.30;92.49;95398.03;5047363;28;20220;-73
2024/01/18 08:23:30;;;;;;;13.60;12.48;;;;;;;2.24;92.89;95414.94;5049154;28;20249;-74
2024/01/18 08:25:59;;;;;;;11.45;10.35;;;;;;;2.27;93.09;95403.84;5049163;28;20232;-73
2024/01/18 08:28:25;;;;;;;8.45;7.25;;;;;;;2.26;92.52;95408.34;5047048;28;20583;-74
2024/01/18 08:30:52;;;;;;;11.73;10.63;;;;;;;2.13;93.34;95399.59;5043892;28;20232;-74
2024/01/18 08:33:20;;;;;;;12.50;11.30;;;;;;;2.14;93.22;95398.56;5045731;28;20280;-74
2024/01/18 08:35:46;;;;;;;10.18;9.20;;;;;;;2.14;93.39;95399.38;5045388;28;20240;-74
2024/01/18 08:38:13;;;;;;;10.95;9.93;;;;;;;2.16;93.99;95400.00;5048470;28;20245;-74
2024/01/18 08:40:39;;;;;;;10.88;9.77;;;;;;;2.07;93.85;95413.78;5044012;28;21092;-75
2024/01/18 08:43:07;;;;;;;13.95;12.55;;;;;;;2.07;93.88;95413.78;5049340;28;20209;-75
2024/01/18 08:45:34;;;;;;;13.23;12.07;;;;;;;2.10;93.58;95419.53;5050752;28;20201;-74
2024/01/18 08:48:01;;;;;;;14.15;12.75;;;;;;;2.01;93.76;95421.63;5047594;28;20213;-75
2024/01/18 08:50:27;;;;;;;9.63;8.75;;;;;;;1.97;93.58;95412.41;5043074;28;20209;-75
2024/01/18 08:52:54;;;;;;;11.85;10.85;;;;;;;1.88;94.08;95424.38;5048320;28;20555;-75
2024/01/18 08:55:20;;;;;;;11.20;10.20;;;;;;;1.86;94.49;95434.44;5046225;28;20651;-74
2024/01/18 08:57:48;;;;;;;12.15;11.07;;;;;;;1.91;94.20;95429.28;5049913;28;20296;-75
2024/01/18 09:00:18;;;;;;;8.35;7.65;;;;;;;1.94;93.74;95449.38;5046185;28;20201;-75
2024/01/18 09:02:45;;;;;;;11.77;10.68;;;;;;;1.95;93.69;95448.34;5045925;28;20308;-74
2024/01/18 09:05:11;;;;;;;12.10;10.27;;;;;;;1.90;93.80;95470.31;5048423;28;20514;-74
2024/01/18 09:07:38;;;;;;;9.55;8.73;;;;;;;1.87;93.83;95472.56;5047702;28;20207;-74
2024/01/18 09:10:06;;;;;;;11.10;9.73;;;;;;;1.85;93.95;95472.78;5040346;28;20197;-73
2024/01/18 09:12:33;;;;;;;14.13;12.82;;;;;;;1.83;94.46;95477.50;5058929;28;20219;-74
2024/01/18 09:14:59;;;;;;;16.00;14.50;;;;;;;1.89;94.24;95483.84;5042146;28;20204;-74
2024/01/18 09:17:28;;;;;;;14.65;13.40;;;;;;;1.66;94.85;95493.13;5048066;28;20595;-75
2024/01/18 09:19:54;;;;;;;13.05;11.75;;;;;;;1.67;95.32;95501.94;5047840;28;20240;-74
2024/01/18 09:22:21;;;;;;;11.10;9.30;;;;;;;1.63;95.41;95498.06;5048565;28;20307;-74
2024/01/18 09:24:47;;;;;;;10.27;9.38;;;;;;;1.59;95.70;95497.69;5047316;28;20216;-75
2024/01/18 09:27:14;;;;;;;8.27;7.47;;;;;;;1.71;95.50;95495.19;5047840;28;20218;-74
2024/01/18 09:29:42;;;;;;;6.80;6.20;;;;;;;1.78;94.80;95497.81;5045239;28;20785;-74
2024/01/18 09:32:08;;;;;;;6.80;6.25;;;;;;;1.79;94.80;95518.13;5030195;28;20201;-75
2024/01/18 09:34:36;;;;;;;13.73;12.35;;;;;;;1.78;95.42;95527.97;5043603;28;20228;-75
2024/01/18 09:37:03;;;;;;;6.30;5.80;;;;;;;1.85;95.27;95518.09;5059893;28;20205;-74
2024/01/18 09:39:30;;;;;;;4.57;4.28;;;;;;;1.75;95.08;95520.38;5039526;28;20226;-74
2024/01/18 09:41:56;;;;;;;4.80;4.50;;;;;;;1.63;95.25;95535.38;5048876;28;20732;-74
2024/01/18 09:44:25;;;;;;;5.35;4.95;;;;;;;1.67;95.68;95536.59;5047214;28;20293;-74
2024/01/18 09:46:53;;;;;;;6.85;6.35;;;;;;;1.68;94.69;95539.06;5042824;28;20200;-74
2024/01/18 09:49:19;;;;;;;4.25;3.95;;;;;;;1.71;95.35;95542.34;5046067;28;21074;-74
2024/01/18 09:51:48;;;;;;;4.55;4.25;;;;;;;1.65;95.78;95554.66;5045085;28;20293;-74
2024/01/18 09:54:15;;;;;;;4.10;3.70;;;;;;;1.67;95.47;95568.59;5058793;28;20209;-75
2024/01/18 09:56:44;;;;;;;4.97;4.45;;;;;;;1.57;95.32;95568.22;5025075;28;20602;-74
2024/01/18 09:59:11;;;;;;;5.20;4.80;;;;;;;1.65;94.95;95570.63;5041397;28;20209;-75
2024/01/18 10:01:39;;;;;;;4.55;4.15;;;;;;;1.49;95.50;95576.41;5046012;28;20674;-75
2024/01/18 10:04:06;;;;;;;5.45;4.95;;;;;;;1.45;95.93;95588.50;5046045;28;20536;-75
2024/01/18 10:06:33;;;;;;;5.47;4.97;;;;;;;1.50;95.60;95599.38;5044913;28;20299;-76
2024/01/18 10:09:00;;;;;;;5.75;5.30;;;;;;;1.39;95.65;95618.63;5060936;28;20654;-74
2024/01/18 10:11:27;;;;;;;5.55;5.05;;;;;;;1.31;96.02;95620.47;5040928;28;20846;-74
2024/01/18 10:13:55;;;;;;;5.30;4.85;;;;;;;1.41;95.99;95643.22;5045641;28;20655;-73
2024/01/18 10:16:29;;;;;;;7.68;7.07;;;;;;;1.42;95.94;95647.53;5048080;28;20284;-73
2024/01/18 10:18:56;;;;;;;8.80;7.90;;;;;;;1.33;96.10;95646.91;5045508;28;20205;-74
2024/01/18 10:21:23;;;;;;;6.20;5.70;;;;;;;1.39;96.88;95651.44;5040771;28;20606;-74
2024/01/18 10:23:50;;;;;;;4.18;3.88;;;;;;;1.41;96.48;95664.56;5043721;28;20221;-74
2024/01/18 10:26:18;;;;;;;5.05;3.58;;;;;;;1.55;96.39;95666.22;5041752;28;20566;-74
2024/01/18 10:28:44;;;;;;;5.05;4.50;;;;;;;1.58;95.54;95671.13;5041904;28;20202;-74
2024/01/18 10:31:12;;;;;;;4.82;4.43;;;;;;;1.44;95.56;95669.47;5042850;28;20208;-74
2024/01/18 10:33:39;;;;;;;4.35;3.95;;;;;;;1.43;95.69;95670.50;5044337;28;20212;-73
2024/01/18 10:36:06;;;;;;;4.70;4.20;;;;;;;1.40;96.16;95673.56;5045724;28;20205;-73
2024/01/18 10:38:33;;;;;;;5.30;4.82;;;;;;;1.30;96.11;95680.09;5046471;28;20248;-74
2024/01/18 10:41:00;;;;;;;4.53;4.13;;;;;;;1.35;95.14;95668.84;5045675;28;20210;-74
2024/01/18 10:43:31;;;;;;;5.45;4.95;;;;;;;1.35;94.08;95667.00;5038219;28;20287;-73
2024/01/18 10:45:58;;;;;;;5.63;5.22;;;;;;;1.40;94.13;95684.22;5039319;28;20626;-74
2024/01/18 10:48:25;;;;;;;5.60;5.20;;;;;;;1.34;94.56;95697.34;5043697;28;20224;-73
2024/01/18 10:50:53;;;;;;;5.53;5.13;;;;;;;1.39;94.73;95694.06;5043517;28;20211;-74
2024/01/18 10:53:24;;;;;;;6.30;5.70;;;;;;;1.33;94.96;95700.19;5043240;28;20199;-74
2024/01/18 10:55:51;;;;;;;5.72;5.22;;;;;;;1.28;94.30;95706.16;5044716;28;20205;-74
2024/01/18 10:58:18;;;;;;;6.35;5.85;;;;;;;1.31;94.34;95718.22;5047156;28;20251;-73
2024/01/18 11:00:50;;;;;;;5.68;5.18;;;;;;;1.19;94.11;95723.34;5045764;28;20287;-74
2024/01/18 11:03:18;;;;;;;5.93;5.43;;;;;;;1.23;94.38;95721.09;5042863;28;20224;-74
2024/01/18 11:05:49;;;;;;;6.25;5.65;;;;;;;1.34;93.59;95734.63;5042095;28;20297;-74
2024/01/18 11:08:17;;;;;;;5.72;5.25;;;;;;;1.30;93.67;95735.25;5046433;28;20288;-73
2024/01/18 11:10:47;;;;;;;5.70;5.20;;;;;;;1.11;93.89;95738.69;5046857;28;20197;-75
2024/01/18 11:13:16;;;;;;;5.80;5.40;;;;;;;0.96;94.32;95746.84;5052758;28;20232;-74
2024/01/18 11:15:47;;;;;;;6.10;5.60;;;;;;;0.97;94.17;95743.97;5066329;28;20205;-73
2024/01/18 11:18:17;;;;;;;5.25;4.85;;;;;;;1.00;93.88;95762.19;5055286;28;20569;-73
2024/01/18 11:21:08;;;;;;;5.75;5.25;;;;;;;1.10;93.18;95763.66;5053430;28;20611;-73
2024/01/18 11:23:38;;;;;;;6.97;6.38;;;;;;;0.99;93.59;95773.03;5050791;28;20311;-73
2024/01/18 11:26:05;;;;;;;6.20;5.68;;;;;;;1.04;93.38;95781.25;5048719;28;20224;-73
2024/01/18 11:28:32;;;;;;;6.80;6.28;;;;;;;1.06;93.35;95773.91;5045401;28;20692;-73
2024/01/18 11:31:00;;;;;;;6.50;6.00;;;;;;;1.00;93.30;95785.34;5050934;28;20205;-73
2024/01/18 11:33:28;;;;;;;7.07;6.47;;;;;;;0.96;93.38;95800.09;5048507;28;20205;-74
2024/01/18 11:35:55;;;;;;;7.70;6.60;;;;;;;0.95;93.00;95791.28;5041400;28;20304;-74
2024/01/18 11:38:24;;;;;;;6.90;6.30;;;;;;;1.05;92.69;95814.03;5048541;28;20204;-73